createdAt,value
2023-01-13T00:01:57.712Z,25.30
2023-01-13T00:05:00.467Z,27.23
2023-01-13T00:08:04.964Z,25.88
2023-01-13T00:11:07.586Z,25.23
2023-01-13T00:14:09.977Z,27.10
2023-01-13T00:17:12.577Z,29.05
2023-01-13T00:20:15.231Z,26.90
2023-01-13T00:23:17.942Z,26.67
2023-01-13T00:26:26.184Z,27.50
2023-01-13T00:29:29.176Z,27.70
2023-01-13T00:32:31.782Z,26.17
2023-01-13T00:35:34.412Z,28.17
2023-01-13T00:38:37.785Z,25.00
2023-01-13T00:41:59.249Z,24.42
2023-01-13T00:45:02.137Z,27.30
2023-01-13T00:48:04.743Z,26.50
2023-01-13T00:51:11.078Z,25.80
2023-01-13T00:54:13.716Z,25.40
2023-01-13T00:57:16.172Z,27.45
2023-01-13T01:00:19.540Z,26.52
2023-01-13T01:03:21.921Z,26.77
2023-01-13T01:06:26.819Z,26.77
2023-01-13T01:09:32.777Z,25.95
2023-01-13T01:12:35.476Z,25.60
2023-01-13T01:15:41.669Z,24.25
2023-01-13T01:18:46.746Z,25.50
2023-01-13T01:21:49.046Z,25.13
2023-01-13T01:24:51.631Z,24.10
2023-01-13T01:27:54.275Z,24.40
2023-01-13T01:30:58.528Z,24.08
2023-01-13T01:34:01.359Z,23.60
2023-01-13T01:37:03.941Z,21.30
2023-01-13T01:40:09.116Z,22.10
2023-01-13T01:43:35.677Z,22.52
2023-01-13T01:46:40.441Z,21.98
2023-01-13T01:49:45.687Z,20.75
2023-01-13T01:52:54.464Z,21.50
2023-01-13T01:55:59.408Z,23.75
2023-01-13T01:59:02.058Z,22.77
2023-01-13T02:02:04.769Z,23.05
2023-01-13T02:05:07.850Z,22.25
2023-01-13T02:08:13.185Z,21.47
2023-01-13T02:11:51.709Z,23.70
2023-01-13T02:14:54.109Z,22.58
2023-01-13T02:18:11.991Z,22.52
2023-01-13T02:21:32.548Z,22.00
2023-01-13T02:25:01.387Z,20.57
2023-01-13T02:29:07.733Z,20.85
2023-01-13T02:32:26.110Z,18.73
2023-01-13T02:35:33.166Z,18.55
2023-01-13T02:38:49.070Z,19.17
2023-01-13T02:42:20.054Z,18.90
2023-01-13T02:45:29.075Z,19.62
2023-01-13T02:48:32.994Z,19.33
2023-01-13T02:51:38.651Z,17.98
2023-01-13T02:54:47.459Z,18.37
2023-01-13T02:57:51.324Z,18.87
2023-01-13T03:00:53.846Z,18.52
2023-01-13T03:03:56.517Z,16.52
2023-01-13T03:07:12.874Z,17.33
2023-01-13T03:10:34.133Z,17.02
2023-01-13T03:13:54.886Z,17.37
2023-01-13T03:17:09.587Z,16.27
2023-01-13T03:20:27.399Z,17.87
2023-01-13T03:24:05.687Z,18.45
2023-01-13T03:27:11.788Z,17.50
2023-01-13T03:30:29.727Z,16.80
2023-01-13T03:33:40.466Z,17.12
2023-01-13T03:36:46.765Z,18.40
2023-01-13T03:39:56.504Z,16.55
2023-01-13T03:43:42.584Z,17.45
2023-01-13T03:46:50.774Z,17.43
2023-01-13T03:49:55.966Z,17.02
2023-01-13T03:53:14.013Z,18.12
2023-01-13T03:56:30.075Z,15.70
2023-01-13T03:59:38.645Z,16.05
2023-01-13T04:02:52.892Z,17.47
2023-01-13T04:06:04.284Z,17.08
2023-01-13T04:09:18.126Z,17.92
2023-01-13T04:12:28.452Z,17.55
2023-01-13T04:15:57.381Z,17.20
2023-01-13T04:19:00.090Z,17.27
2023-01-13T04:22:02.549Z,17.65
2023-01-13T04:25:08.026Z,17.25
2023-01-13T04:28:11.202Z,18.00
2023-01-13T04:31:13.896Z,18.20
2023-01-13T04:34:16.309Z,16.90
2023-01-13T04:37:19.005Z,17.45
2023-01-13T04:40:21.489Z,16.30
2023-01-13T04:43:24.198Z,15.75
2023-01-13T04:46:26.713Z,15.73
2023-01-13T04:49:29.510Z,16.93
2023-01-13T04:52:31.864Z,18.30
2023-01-13T04:55:35.379Z,17.23
2023-01-13T04:58:37.756Z,17.40
2023-01-13T05:01:40.658Z,17.98
2023-01-13T05:04:43.111Z,16.07
2023-01-13T05:07:45.919Z,17.65
2023-01-13T05:10:48.249Z,15.90
2023-01-13T05:14:09.667Z,17.62
2023-01-13T05:17:24.130Z,15.43
2023-01-13T05:20:26.871Z,16.73
2023-01-13T05:23:47.875Z,17.60
2023-01-13T05:26:50.570Z,16.08
2023-01-13T05:29:53.772Z,17.62
2023-01-13T05:32:56.799Z,18.55
2023-01-13T05:36:02.789Z,16.97
2023-01-13T05:39:05.441Z,16.30
2023-01-13T05:42:26.687Z,16.20
2023-01-13T05:45:31.671Z,16.80
2023-01-13T05:48:42.544Z,16.23
2023-01-13T05:51:45.253Z,14.97
2023-01-13T05:54:47.621Z,16.85
2023-01-13T05:57:50.251Z,16.42
2023-01-13T06:00:53.298Z,16.45
2023-01-13T06:03:55.958Z,16.52
2023-01-13T06:06:58.257Z,17.07
2023-01-13T06:10:00.832Z,18.25
2023-01-13T06:13:04.167Z,18.08
2023-01-13T06:16:07.077Z,16.85
2023-01-13T06:19:13.493Z,16.67
2023-01-13T06:22:17.592Z,17.93
2023-01-13T06:25:26.585Z,17.08
2023-01-13T06:28:29.323Z,19.80
2023-01-13T06:31:35.595Z,18.08
2023-01-13T06:34:40.098Z,17.80
2023-01-13T06:37:45.029Z,16.67
2023-01-13T06:40:48.039Z,18.05
2023-01-13T06:43:50.405Z,17.92
2023-01-13T06:46:53.241Z,17.27
2023-01-13T06:49:55.732Z,16.52
2023-01-13T06:52:59.116Z,17.87
2023-01-13T06:56:01.598Z,16.77
2023-01-13T06:59:04.247Z,16.50
2023-01-13T07:02:06.833Z,17.65
2023-01-13T07:05:09.720Z,15.77
2023-01-13T07:08:12.377Z,15.97
2023-01-13T07:11:15.202Z,16.77
2023-01-13T07:14:36.470Z,19.08
2023-01-13T07:17:39.138Z,16.35
2023-01-13T07:20:41.499Z,16.75
2023-01-13T07:23:44.257Z,16.23
2023-01-13T07:26:46.625Z,16.90
2023-01-13T07:29:49.353Z,15.77
2023-01-13T07:32:51.729Z,16.83
2023-01-13T07:36:00.203Z,14.85
2023-01-13T07:39:03.023Z,15.53
2023-01-13T07:42:24.457Z,16.17
2023-01-13T07:45:26.936Z,14.55
2023-01-13T07:48:30.559Z,14.70
2023-01-13T07:51:37.460Z,15.40
2023-01-13T07:54:41.320Z,14.87
2023-01-13T07:57:43.800Z,13.93
2023-01-13T08:00:46.650Z,13.30
2023-01-13T08:03:49.425Z,14.70
2023-01-13T08:06:51.754Z,12.77
2023-01-13T08:09:54.408Z,13.47
2023-01-13T08:13:15.629Z,12.85
2023-01-13T08:16:18.387Z,15.60
2023-01-13T08:19:20.767Z,13.15
2023-01-13T08:22:23.396Z,12.27
2023-01-13T08:25:27.117Z,12.80
2023-01-13T08:28:30.131Z,12.75
2023-01-13T08:31:32.448Z,13.50
2023-01-13T08:34:36.231Z,12.95
2023-01-13T08:37:39.129Z,12.40
2023-01-13T08:40:41.862Z,12.97
2023-01-13T08:43:44.214Z,12.48
2023-01-13T08:46:47.022Z,12.48
2023-01-13T08:49:49.440Z,12.90
2023-01-13T08:52:52.063Z,12.55
2023-01-13T08:55:54.423Z,11.43
2023-01-13T08:59:00.909Z,11.77
2023-01-13T09:02:04.444Z,12.32
2023-01-13T09:05:08.287Z,13.15
2023-01-13T09:08:10.608Z,13.10
2023-01-13T09:11:52.691Z,12.70
2023-01-13T09:14:55.020Z,13.15
2023-01-13T09:17:57.732Z,13.10
2023-01-13T09:21:00.079Z,13.43
2023-01-13T09:24:02.771Z,14.27
2023-01-13T09:27:05.136Z,13.13
2023-01-13T09:30:08.943Z,14.40
2023-01-13T09:33:30.305Z,14.43
2023-01-13T09:36:33.045Z,13.90
2023-01-13T09:39:36.479Z,16.17
2023-01-13T09:43:04.864Z,15.37
2023-01-13T09:46:47.224Z,13.85
2023-01-13T09:49:50.701Z,14.98
2023-01-13T09:52:53.565Z,14.45
2023-01-13T09:55:56.616Z,15.43
2023-01-13T09:58:59.052Z,15.47
2023-01-13T10:02:22.346Z,14.90
2023-01-13T10:05:37.297Z,14.02
2023-01-13T10:08:42.632Z,14.48
2023-01-13T10:12:07.283Z,15.35
2023-01-13T10:15:19.911Z,15.20
2023-01-13T10:18:35.477Z,15.63
2023-01-13T10:21:52.571Z,17.48
2023-01-13T10:25:20.952Z,13.25
2023-01-13T10:28:25.183Z,14.93
2023-01-13T10:31:28.205Z,15.17
2023-01-13T10:34:30.649Z,16.17
2023-01-13T10:37:33.439Z,15.52
2023-01-13T10:40:35.808Z,15.35
2023-01-13T10:43:38.720Z,16.27
2023-01-13T10:46:53.538Z,16.07
2023-01-13T10:50:17.187Z,14.82
2023-01-13T10:53:31.016Z,16.08
2023-01-13T10:56:41.047Z,14.43
2023-01-13T10:59:54.957Z,15.63
2023-01-13T11:03:09.906Z,15.80
2023-01-13T11:06:30.349Z,16.17
2023-01-13T11:09:33.820Z,16.30
2023-01-13T11:13:08.721Z,17.95
2023-01-13T11:16:16.520Z,17.83
2023-01-13T11:19:22.755Z,16.43
2023-01-13T11:22:34.065Z,16.90
2023-01-13T11:25:46.880Z,16.20
2023-01-13T11:28:58.280Z,16.75
2023-01-13T11:32:29.621Z,18.17
2023-01-13T11:35:36.081Z,16.80
2023-01-13T11:38:53.899Z,17.25
2023-01-13T11:42:20.487Z,16.33
2023-01-13T11:45:42.631Z,16.62
2023-01-13T11:48:45.471Z,17.27
2023-01-13T11:52:15.090Z,16.47
2023-01-13T11:55:54.462Z,17.15
2023-01-13T11:59:11.927Z,16.23
2023-01-13T12:02:39.211Z,17.17
2023-01-13T12:05:59.711Z,17.52
2023-01-13T12:09:48.805Z,16.27
2023-01-13T12:13:03.393Z,17.85
2023-01-13T12:16:26.155Z,15.48
2023-01-13T12:19:32.475Z,19.33
2023-01-13T12:22:37.286Z,17.17
2023-01-13T12:25:47.205Z,17.70
2023-01-13T12:28:56.336Z,17.10
2023-01-13T12:32:01.821Z,18.67
2023-01-13T12:35:34.577Z,19.10
2023-01-13T12:38:44.886Z,18.85
2023-01-13T12:42:14.347Z,18.30
2023-01-13T12:45:30.370Z,18.62
2023-01-13T12:48:59.511Z,18.48
2023-01-13T12:52:13.988Z,18.05
2023-01-13T12:55:20.117Z,18.93
2023-01-13T12:58:28.653Z,18.85
2023-01-13T13:01:36.043Z,19.02
2023-01-13T13:04:43.403Z,18.98
2023-01-13T13:07:49.762Z,20.27
2023-01-13T13:11:37.928Z,20.47
2023-01-13T13:14:40.276Z,20.45
2023-01-13T13:17:44.841Z,19.83
2023-01-13T13:21:13.742Z,19.25
2023-01-13T13:24:18.215Z,19.27
2023-01-13T13:27:40.949Z,18.93
2023-01-13T13:30:57.961Z,20.77
2023-01-13T13:34:16.279Z,20.37
2023-01-13T13:37:55.844Z,18.67
2023-01-13T13:41:17.733Z,19.20
2023-01-13T13:44:49.441Z,19.00
2023-01-13T13:47:51.810Z,17.77
2023-01-13T13:51:02.145Z,18.50
2023-01-13T13:54:05.046Z,16.60
2023-01-13T13:57:32.292Z,18.95
2023-01-13T14:00:38.061Z,18.50
2023-01-13T14:03:40.812Z,16.55
2023-01-13T14:06:51.838Z,18.40
2023-01-13T14:09:56.436Z,17.62
2023-01-13T14:13:00.754Z,17.60
2023-01-13T14:16:11.392Z,15.77
2023-01-13T14:19:28.758Z,17.60
2023-01-13T14:22:32.732Z,16.98
2023-01-13T14:25:49.196Z,16.50
2023-01-13T14:28:52.769Z,17.95
2023-01-13T14:31:55.319Z,16.47
2023-01-13T14:34:57.996Z,16.60
2023-01-13T14:38:04.395Z,18.40
2023-01-13T14:41:25.851Z,15.93
2023-01-13T14:44:31.753Z,16.75
2023-01-13T14:47:34.557Z,17.23
2023-01-13T14:50:37.147Z,14.38
2023-01-13T14:53:46.978Z,15.18
2023-01-13T14:56:50.599Z,15.10
2023-01-13T15:00:14.059Z,16.02
2023-01-13T15:03:21.454Z,14.60
2023-01-13T15:06:26.111Z,16.12
2023-01-13T15:09:36.535Z,16.52
2023-01-13T15:12:40.806Z,16.62
2023-01-13T15:15:43.185Z,15.50
2023-01-13T15:18:46.087Z,16.33
2023-01-13T15:21:48.536Z,18.30
2023-01-13T15:24:51.190Z,17.85
2023-01-13T15:27:53.805Z,18.77
2023-01-13T15:31:00.720Z,22.65
2023-01-13T15:34:03.229Z,16.43
2023-01-13T15:37:05.950Z,15.55
2023-01-13T15:40:18.236Z,16.37
2023-01-13T15:43:42.558Z,17.90
2023-01-13T15:46:45.313Z,18.83
2023-01-13T15:49:48.095Z,18.00
2023-01-13T15:52:50.492Z,16.37
2023-01-13T15:55:56.535Z,16.45
2023-01-13T15:58:59.122Z,15.40
2023-01-13T16:02:01.796Z,16.70
2023-01-13T16:05:05.606Z,16.37
2023-01-13T16:08:19.276Z,16.62
2023-01-13T16:11:21.891Z,18.67
2023-01-13T16:14:24.226Z,15.77
2023-01-13T16:17:30.220Z,18.23
2023-01-13T16:20:32.624Z,16.13
2023-01-13T16:23:35.234Z,17.58
2023-01-13T16:26:38.953Z,16.83
2023-01-13T16:29:42.290Z,16.90
2023-01-13T16:32:44.627Z,17.48
2023-01-13T16:36:10.388Z,16.17
2023-01-13T16:39:21.857Z,16.92
2023-01-13T16:42:24.547Z,16.52
2023-01-13T16:45:27.592Z,17.23
2023-01-13T16:48:30.255Z,17.10
2023-01-13T16:51:33.737Z,17.50
2023-01-13T16:54:36.808Z,16.10
2023-01-13T16:57:39.246Z,18.20
2023-01-13T17:00:42.007Z,14.77
2023-01-13T17:03:44.554Z,16.55
2023-01-13T17:07:08.380Z,16.07
2023-01-13T17:10:20.264Z,16.35
2023-01-13T17:13:26.605Z,15.52
2023-01-13T17:16:28.971Z,15.80
2023-01-13T17:19:31.685Z,15.85
2023-01-13T17:22:34.027Z,16.67
2023-01-13T17:25:36.612Z,14.85
2023-01-13T17:28:38.963Z,15.38
2023-01-13T17:31:41.847Z,16.33
2023-01-13T17:34:45.249Z,15.98
2023-01-13T17:37:47.930Z,16.23
2023-01-13T17:40:50.308Z,15.23
2023-01-13T17:43:53.754Z,16.12
2023-01-13T17:46:56.825Z,17.85
2023-01-13T17:49:59.651Z,16.45
2023-01-13T17:53:01.989Z,15.37
2023-01-13T17:56:04.812Z,16.27
2023-01-13T17:59:10.084Z,16.40
2023-01-13T18:02:15.355Z,16.15
2023-01-13T18:05:18.103Z,16.62
2023-01-13T18:08:21.716Z,16.87
2023-01-13T18:11:25.031Z,15.73
2023-01-13T18:14:28.166Z,14.80
2023-01-13T18:17:30.913Z,15.98
2023-01-13T18:20:51.767Z,16.05
2023-01-13T18:24:13.041Z,15.00
2023-01-13T18:27:19.916Z,15.18
2023-01-13T18:30:22.693Z,16.77
2023-01-13T18:33:25.274Z,15.48
2023-01-13T18:36:28.042Z,15.50
2023-01-13T18:39:30.411Z,16.73
2023-01-13T18:42:51.507Z,14.82
2023-01-13T18:45:53.995Z,16.92
2023-01-13T18:48:56.869Z,16.60
2023-01-13T18:51:59.286Z,16.20
2023-01-13T18:55:01.987Z,17.40
2023-01-13T18:58:04.543Z,16.95
2023-01-13T19:01:07.301Z,17.62
2023-01-13T19:04:18.897Z,16.85
2023-01-13T19:07:28.407Z,16.87
2023-01-13T19:10:32.490Z,16.87
2023-01-13T19:13:36.307Z,17.50
2023-01-13T19:16:39.260Z,17.35
2023-01-13T19:19:53.795Z,17.17
2023-01-13T19:22:56.218Z,17.25
2023-01-13T19:26:03.822Z,18.30
2023-01-13T19:29:06.350Z,16.73
2023-01-13T19:32:09.679Z,17.58
2023-01-13T19:35:17.793Z,18.15
2023-01-13T19:38:20.845Z,18.00
2023-01-13T19:41:41.791Z,17.83
2023-01-13T19:45:02.993Z,17.45
2023-01-13T19:48:08.253Z,18.55
2023-01-13T19:51:14.361Z,17.87
2023-01-13T19:54:16.704Z,17.45
2023-01-13T19:57:20.327Z,17.63
2023-01-13T20:00:23.795Z,18.58
2023-01-13T20:03:31.006Z,18.75
2023-01-13T20:06:33.604Z,17.77
2023-01-13T20:09:36.442Z,18.40
2023-01-13T20:12:39.161Z,18.10
2023-01-13T20:15:42.692Z,17.45
2023-01-13T20:18:49.115Z,18.35
2023-01-13T20:21:51.711Z,17.02
2023-01-13T20:24:55.181Z,18.10
2023-01-13T20:27:58.785Z,19.07
2023-01-13T20:31:01.189Z,19.25
2023-01-13T20:34:03.939Z,19.27
2023-01-13T20:37:06.305Z,20.55
2023-01-13T20:40:12.984Z,18.92
2023-01-13T20:43:17.597Z,19.20
2023-01-13T20:46:22.588Z,21.40
2023-01-13T20:49:26.857Z,20.42
2023-01-13T20:52:29.565Z,18.48
2023-01-13T20:55:31.999Z,20.50
2023-01-13T20:58:34.837Z,20.33
2023-01-13T21:01:37.859Z,19.35
2023-01-13T21:04:40.833Z,19.08
2023-01-13T21:07:43.198Z,19.98
2023-01-13T21:10:45.953Z,20.17
2023-01-13T21:14:06.801Z,20.73
2023-01-13T21:17:29.431Z,20.50
2023-01-13T21:20:34.077Z,21.62
2023-01-13T21:23:36.852Z,22.17
2023-01-13T21:26:40.202Z,21.92
2023-01-13T21:29:44.616Z,20.23
2023-01-13T21:32:47.443Z,22.62
2023-01-13T21:35:50.209Z,21.30
2023-01-13T21:38:54.242Z,21.70
2023-01-13T21:42:15.628Z,22.85
2023-01-13T21:45:37.524Z,23.23
2023-01-13T21:48:40.702Z,24.67
2023-01-13T21:51:44.900Z,26.27
2023-01-13T21:55:06.764Z,24.17
2023-01-13T21:58:15.560Z,24.50
2023-01-13T22:01:19.256Z,25.80
2023-01-13T22:04:22.447Z,24.17
2023-01-13T22:07:25.745Z,23.23
2023-01-13T22:10:30.733Z,24.12
2023-01-13T22:13:51.862Z,24.02
2023-01-13T22:16:56.791Z,23.93
2023-01-13T22:19:59.999Z,20.50
2023-01-13T22:23:03.007Z,26.50
2023-01-13T22:26:06.977Z,25.30
2023-01-13T22:29:09.810Z,24.15
2023-01-13T22:32:12.417Z,24.70
2023-01-13T22:35:16.128Z,23.35
2023-01-13T22:38:18.472Z,23.80
2023-01-13T22:41:21.187Z,24.08
2023-01-13T22:44:23.802Z,25.60
2023-01-13T22:47:26.415Z,23.37
2023-01-13T22:50:28.826Z,23.20
2023-01-13T22:53:31.460Z,24.92
2023-01-13T22:56:34.027Z,23.12
2023-01-13T22:59:36.784Z,23.12
2023-01-13T23:02:39.138Z,23.47
2023-01-13T23:05:42.035Z,22.60
2023-01-13T23:08:45.543Z,21.90
2023-01-13T23:11:48.334Z,22.70
2023-01-13T23:14:50.744Z,21.52
2023-01-13T23:17:53.477Z,22.23
2023-01-13T23:20:55.935Z,22.65
2023-01-13T23:24:00.461Z,22.65
2023-01-13T23:27:02.931Z,24.00
2023-01-13T23:30:07.661Z,24.75
2023-01-13T23:33:10.052Z,24.57
2023-01-13T23:36:24.125Z,23.95
2023-01-13T23:39:26.942Z,25.10
2023-01-13T23:42:29.601Z,23.92
2023-01-13T23:45:32.502Z,24.08
2023-01-13T23:48:36.121Z,23.83
2023-01-13T23:51:38.517Z,23.25
2023-01-13T23:54:41.135Z,24.60
2023-01-13T23:57:43.475Z,24.20
